Meteo Giornale » Osservazioni meteo Turchia » Aydin
ore: 10:50 - Osservazioni Meteo Aydin
Lat. 37° 51' N Lon. 27° 51' E Alt. 57 metri s.l.m.
30 °C
Sereno
Temp. 24 Ore
21 °C
35 °C
Nord-Est
9.3 Km/h
Dew point 17 °C
Umidità 45 %
Visibilità 10 Km
Il sole sorge alle ore 06:38
Il sole tramonta alle ore 19:38
| Data e Ora | Cielo e Fenomeni | T °C | DP °C | Um. % | Pres. hPa | Vis. km | Vento km/h | |
|---|---|---|---|---|---|---|---|---|
| Oggi h: 10:50 | Sereno | 30 | 17 | 45 | 1012 | 10 | NE 9.3 | |
| Oggi h: 09:50 | Sereno | 28 | 16 | 48 | 1011 | 10 | E 16.7 | |
| Oggi h: 08:50 | Sereno | 26 | 16 | 54 | 1011 | 10 | E/NE 11.1 | |
| Oggi h: 07:50 | Sereno | 25 | 15 | 53 | 1011 | 10 | E 11.1 | |
| Oggi h: 06:50 | Sereno | 21 | 15 | 68 | 1011 | 10 | NE 9.3 | |
| Oggi h: 05:50 | Sereno | 21 | 16 | 73 | 1010 | 10 | NE 7.4 | |
| Oggi h: 04:50 | Sereno | 21 | 16 | 73 | 1010 | 10 | N 5.5 | |
| Oggi h: 03:50 | Sereno | 22 | 16 | 68 | 1010 | 10 | N 0 | |
| Oggi h: 02:50 | Sereno | 22 | 16 | 68 | 1010 | 10 | N 0 | |
| Oggi h: 01:50 | Sereno | 24 | 17 | 64 | 1010 | 10 | N 0 | |
| Oggi h: 00:50 | Sereno | 24 | 16 | 60 | 1010 | 10 | N 1.8 | |
| Ieri h: 23:50 | Sereno | 24 | 16 | 60 | 1010 | 10 | N 5.5 | |
| Ieri h: 22:50 | Sereno | 24 | 17 | 64 | 1010 | 10 | N 1.8 | |
| Ieri h: 21:50 | Sereno | 25 | 17 | 61 | 1009 | 10 | S/SO 11.1 | |
| Ieri h: 20:50 | Sereno | 26 | 17 | 57 | 1009 | 10 | N 5.5 | |
| Ieri h: 19:50 | Sereno | 28 | 18 | 54 | 1008 | 10 | N 5.5 | |
| Ieri h: 18:50 | Sereno | 31 | 19 | 48 | 1008 | 10 | S/SO 9.3 | |
| Ieri h: 17:50 | Sereno | 34 | 18 | 38 | 1008 | 10 | S/SO 7.4 | |
| Ieri h: 16:50 | Sereno | 35 | 14 | 28 | 1008 | 10 | SO 7.4 | |
| Ieri h: 15:50 | Sereno | 34 | 14 | 30 | 1009 | 10 | SO 11.1 | |
| Ieri h: 14:50 | Sereno | 33 | 14 | 31 | 1009 | 10 | SO 11.1 | |
| Ieri h: 13:50 | Sereno | 34 | 14 | 30 | 1010 | 10 | N 3.7 | |
| Ieri h: 12:50 | Sereno | 32 | 13 | 31 | 1011 | 10 | NE 9.3 | |
| Ieri h: 11:50 | Sereno | 31 | 13 | 33 | 1011 | 10 | E 16.7 | |



